Time;durP1;ratioP1;P1;durP2;ratioP2;P2;SDS_P1;SDS_P2;PMS_P1;PMS_P2;Temp;Humidity;BMP_temperature;BMP_pressure;BME280_temperature;BME280_humidity;BME280_pressure;Samples;Min_cycle;Max_cycle;Signal;HPM_P1;HPM_P2
2024/01/20 00:01:33;;;;;;;14.80;6.43;;;;;;;-4.39;100.00;98975.47;5090205;28;20058;-71
2024/01/20 00:03:59;;;;;;;11.13;5.77;;;;;;;-4.51;100.00;98973.53;5104833;27;20049;-74
2024/01/20 00:06:25;;;;;;;11.17;6.30;;;;;;;-4.55;100.00;98980.63;5098433;27;20035;-71
2024/01/20 00:08:55;;;;;;;12.53;5.77;;;;;;;-4.42;100.00;98986.00;5097681;27;20035;-72
2024/01/20 00:11:22;;;;;;;10.83;5.30;;;;;;;-4.51;100.00;98979.56;5081777;27;20038;-69
2024/01/20 00:13:48;;;;;;;14.53;7.03;;;;;;;-4.54;100.00;98986.66;5114699;27;20470;-69
2024/01/20 00:16:14;;;;;;;14.20;6.53;;;;;;;-4.54;100.00;98987.50;5079785;27;20138;-70
2024/01/20 00:18:40;;;;;;;11.50;5.67;;;;;;;-4.62;100.00;98983.63;5079668;27;20423;-71
2024/01/20 00:21:06;;;;;;;12.83;6.70;;;;;;;-4.67;100.00;98989.06;5113583;27;20053;-69
2024/01/20 00:23:31;;;;;;;11.87;5.90;;;;;;;-4.67;100.00;98986.47;5096696;27;20049;-70
2024/01/20 00:25:57;;;;;;;11.37;5.60;;;;;;;-4.69;100.00;98983.09;5080271;28;20131;-68
2024/01/20 00:28:23;;;;;;;10.27;5.00;;;;;;;-4.67;100.00;98978.69;5079728;28;20111;-69
2024/01/20 00:30:48;;;;;;;11.63;5.47;;;;;;;-4.65;100.00;98971.69;5064482;28;20503;-70
2024/01/20 00:33:14;;;;;;;12.37;5.60;;;;;;;-4.62;100.00;98968.94;5080218;28;20498;-68
2024/01/20 00:35:44;;;;;;;12.43;6.03;;;;;;;-4.63;100.00;98969.88;5096416;28;20398;-69
2024/01/20 00:38:10;;;;;;;8.90;5.00;;;;;;;-4.58;100.00;98970.44;5097263;28;20046;-68
2024/01/20 00:40:36;;;;;;;8.50;4.53;;;;;;;-4.47;100.00;98970.72;5113530;28;20410;-68
2024/01/20 00:43:02;;;;;;;10.27;4.50;;;;;;;-4.44;100.00;98980.06;5079404;28;20430;-73
2024/01/20 00:45:28;;;;;;;9.20;4.50;;;;;;;-4.42;100.00;98983.41;5079694;28;20039;-69
2024/01/20 00:47:53;;;;;;;9.57;4.90;;;;;;;-4.37;100.00;98974.50;5093220;28;20058;-69
2024/01/20 00:50:19;;;;;;;7.20;4.20;;;;;;;-4.32;100.00;98980.25;5080651;28;20047;-69
2024/01/20 00:52:45;;;;;;;9.70;4.83;;;;;;;-4.28;100.00;98975.75;5097348;28;20134;-70
2024/01/20 00:55:12;;;;;;;9.07;4.30;;;;;;;-4.17;100.00;98976.84;5097641;28;20047;-70
2024/01/20 00:57:38;;;;;;;7.57;4.13;;;;;;;-4.20;100.00;98979.63;5131422;28;20047;-70
2024/01/20 01:00:09;;;;;;;8.87;4.70;;;;;;;-4.11;100.00;98971.34;5080548;28;20096;-72
2024/01/20 01:02:37;;;;;;;;;;;;;;;-3.90;100.00;98980.53;5081508;28;20399;-70
2024/01/20 01:05:03;;;;;;;7.90;4.13;;;;;;;-4.09;100.00;98979.84;5097917;28;19937;-71
2024/01/20 01:07:30;;;;;;;6.90;4.20;;;;;;;-4.12;100.00;98961.88;5081337;28;20058;-69
2024/01/20 01:09:56;;;;;;;7.87;4.43;;;;;;;-4.13;100.00;98967.97;5097398;28;20035;-69
2024/01/20 01:12:22;;;;;;;8.23;4.23;;;;;;;-4.12;100.00;98968.81;5114346;28;20047;-69
2024/01/20 01:14:47;;;;;;;8.53;4.30;;;;;;;-4.10;100.00;98965.22;5097297;28;20043;-70
2024/01/20 01:17:16;;;;;;;7.47;4.40;;;;;;;-4.05;100.00;98960.63;5080111;28;20398;-69
2024/01/20 01:19:43;;;;;;;9.40;4.50;;;;;;;-4.05;100.00;98965.81;5131026;28;20055;-69
2024/01/20 01:22:09;;;;;;;7.73;3.90;;;;;;;-4.07;100.00;98967.66;5114338;28;20092;-71
2024/01/20 01:24:35;;;;;;;8.20;3.83;;;;;;;-4.04;100.00;98967.47;5114259;28;20047;-72
2024/01/20 01:27:01;;;;;;;7.03;3.70;;;;;;;-4.02;100.00;98969.97;5080833;28;20505;-69
2024/01/20 01:29:29;;;;;;;6.87;3.73;;;;;;;-4.06;100.00;98966.72;5131677;28;20043;-70
2024/01/20 01:31:55;;;;;;;6.00;3.90;;;;;;;-3.96;100.00;98983.44;5131666;28;20130;-70
2024/01/20 01:34:20;;;;;;;7.53;3.90;;;;;;;-3.96;100.00;98974.81;5097907;28;20078;-70
2024/01/20 01:36:48;;;;;;;7.40;3.87;;;;;;;-3.92;100.00;98971.97;5096670;28;20039;-69
2024/01/20 01:39:16;;;;;;;6.80;3.57;;;;;;;-3.91;100.00;98980.59;5131178;28;20466;-69
2024/01/20 01:41:42;;;;;;;5.97;3.40;;;;;;;-3.93;100.00;98983.28;5098304;28;20051;-69
2024/01/20 01:44:08;;;;;;;6.13;3.00;;;;;;;-3.92;100.00;98974.56;5097800;27;20068;-70
2024/01/20 01:46:34;;;;;;;5.60;3.23;;;;;;;-3.88;100.00;98972.66;5100849;27;20050;-69
2024/01/20 01:49:00;;;;;;;5.33;3.13;;;;;;;-3.87;100.00;98969.97;5101089;27;20053;-69
2024/01/20 01:51:29;;;;;;;5.50;3.23;;;;;;;-3.83;100.00;98978.44;5116700;27;20043;-69
2024/01/20 01:53:56;;;;;;;6.67;3.53;;;;;;;-3.81;100.00;98985.19;5099797;27;20063;-69
2024/01/20 01:56:22;;;;;;;7.83;3.90;;;;;;;-3.79;100.00;98977.31;5065706;27;20059;-69
2024/01/20 01:58:48;;;;;;;6.03;3.83;;;;;;;-3.82;100.00;98962.78;5116408;27;20080;-69
2024/01/20 02:01:13;;;;;;;7.00;3.67;;;;;;;-3.76;100.00;98969.38;5081987;27;20043;-69
2024/01/20 02:03:39;;;;;;;8.17;3.97;;;;;;;-3.76;100.00;98964.19;5082230;27;20039;-70
2024/01/20 02:06:07;;;;;;;6.30;3.53;;;;;;;-3.68;100.00;98960.25;5130663;27;20055;-74
2024/01/20 02:08:35;;;;;;;5.70;3.33;;;;;;;-3.63;100.00;98960.81;5092523;27;20051;-71
2024/01/20 02:11:01;;;;;;;5.67;3.13;;;;;;;-3.68;100.00;98952.47;5081514;27;20459;-70
2024/01/20 02:13:27;;;;;;;4.33;3.03;;;;;;;-3.65;100.00;98969.59;5065154;27;20049;-71
2024/01/20 02:15:54;;;;;;;5.57;2.90;;;;;;;-3.60;100.00;98968.41;5064453;27;20035;-70
2024/01/20 02:18:23;;;;;;;4.40;2.97;;;;;;;-3.51;100.00;98957.50;5081866;27;20039;-70
2024/01/20 02:20:49;;;;;;;8.33;3.90;;;;;;;-3.62;100.00;98962.50;5081674;27;20039;-70
2024/01/20 02:23:16;;;;;;;6.70;4.00;;;;;;;-3.64;100.00;98963.50;5112761;27;20097;-70
2024/01/20 02:25:42;;;;;;;7.20;4.57;;;;;;;-3.68;100.00;98965.44;5099235;27;20083;-70
2024/01/20 02:28:08;;;;;;;6.33;3.20;;;;;;;-3.65;100.00;98970.47;5098933;27;20415;-75
2024/01/20 02:30:34;;;;;;;3.93;2.70;;;;;;;-3.65;100.00;98970.47;5058286;28;20063;-70
2024/01/20 02:32:59;;;;;;;3.70;2.53;;;;;;;-3.66;100.00;98962.75;5075011;28;20052;-71
2024/01/20 02:35:25;;;;;;;3.87;2.77;;;;;;;-3.66;100.00;98976.53;5075264;28;20064;-70
2024/01/20 02:37:51;;;;;;;4.60;2.90;;;;;;;-3.63;100.00;98978.97;5041234;28;20052;-71
2024/01/20 02:40:17;;;;;;;6.07;3.30;;;;;;;-3.62;100.00;98977.22;5041675;28;20052;-70
2024/01/20 02:42:44;;;;;;;5.83;3.63;;;;;;;-3.63;100.00;98976.38;5042707;28;20107;-70
2024/01/20 02:45:10;;;;;;;6.07;3.50;;;;;;;-3.63;100.00;98968.59;5074908;28;20060;-71
2024/01/20 02:47:35;;;;;;;6.60;3.47;;;;;;;-3.56;100.00;98967.34;5074934;28;20051;-70
2024/01/20 02:50:02;;;;;;;7.33;3.83;;;;;;;-3.55;100.00;98976.78;5038484;28;20056;-70
2024/01/20 02:52:29;;;;;;;8.87;3.53;;;;;;;-3.58;100.00;98982.16;5038162;28;20371;-70
2024/01/20 02:54:55;;;;;;;7.13;3.43;;;;;;;-3.58;100.00;98960.53;5054428;28;20480;-70
2024/01/20 02:57:21;;;;;;;5.13;3.13;;;;;;;-3.56;100.00;98975.13;5020168;28;20135;-69
2024/01/20 02:59:46;;;;;;;7.23;3.87;;;;;;;-3.55;100.00;98978.53;5053999;28;20071;-69
2024/01/20 03:02:12;;;;;;;9.53;4.10;;;;;;;-3.52;100.00;98988.75;5085392;28;20056;-70
2024/01/20 03:04:38;;;;;;;7.73;4.10;;;;;;;-3.55;100.00;98976.78;5061307;28;20365;-69
2024/01/20 03:07:04;;;;;;;7.47;3.53;;;;;;;-3.52;100.00;98983.53;5111465;28;20059;-69
2024/01/20 03:09:29;;;;;;;6.10;3.50;;;;;;;-3.52;100.00;98992.19;5060446;28;20048;-67
2024/01/20 03:11:56;;;;;;;3.83;2.70;;;;;;;-3.55;100.00;98994.09;5077621;28;20122;-68
2024/01/20 03:14:23;;;;;;;5.60;3.30;;;;;;;-3.52;100.00;99002.56;5111239;28;20126;-68
2024/01/20 03:16:49;;;;;;;7.07;4.17;;;;;;;-3.51;100.00;98987.84;5111454;28;20077;-69
2024/01/20 03:19:15;;;;;;;8.00;4.30;;;;;;;-3.46;100.00;99001.41;5111159;28;20058;-69
2024/01/20 03:21:42;;;;;;;7.50;3.47;;;;;;;-3.44;100.00;98996.94;5107001;27;20083;-70
2024/01/20 03:24:09;;;;;;;8.30;3.93;;;;;;;-3.46;100.00;99002.22;5081733;27;20359;-71
2024/01/20 03:26:35;;;;;;;5.93;3.40;;;;;;;-3.47;100.00;98999.69;5132115;27;20096;-71
2024/01/20 03:29:01;;;;;;;4.70;3.20;;;;;;;-3.47;100.00;99008.34;5132664;27;20039;-70
2024/01/20 03:31:28;;;;;;;5.40;3.13;;;;;;;-3.47;100.00;99012.69;5132456;27;20047;-69
2024/01/20 03:33:53;;;;;;;7.47;3.50;;;;;;;-3.41;100.00;99016.72;5098183;27;20043;-69
2024/01/20 03:36:19;;;;;;;6.13;3.40;;;;;;;-3.41;100.00;99011.50;5114920;27;20049;-69
2024/01/20 03:38:45;;;;;;;5.53;2.97;;;;;;;-3.47;100.00;99016.13;5132478;27;20035;-69
2024/01/20 03:41:11;;;;;;;4.47;2.90;;;;;;;-3.47;100.00;99015.28;5132679;27;20043;-70
2024/01/20 03:43:36;;;;;;;4.17;2.50;;;;;;;-3.49;100.00;99010.16;5115367;27;20035;-70
2024/01/20 03:46:02;;;;;;;4.40;2.60;;;;;;;-3.50;100.00;99012.84;5132227;27;20042;-70
2024/01/20 03:48:29;;;;;;;3.93;2.30;;;;;;;-3.51;100.00;99022.38;5081387;27;20039;-71
2024/01/20 03:50:54;;;;;;;4.70;2.60;;;;;;;-3.51;100.00;99019.78;5132102;27;20186;-71
2024/01/20 03:53:20;;;;;;;4.87;2.87;;;;;;;-3.57;100.00;99006.34;5098128;27;20055;-71
2024/01/20 03:55:46;;;;;;;3.40;2.63;;;;;;;-3.50;100.00;99025.81;5097931;27;20118;-73
2024/01/20 03:58:13;;;;;;;4.27;2.20;;;;;;;-3.47;100.00;99018.72;5098468;27;20137;-75
2024/01/20 04:00:39;;;;;;;4.57;2.37;;;;;;;-3.47;100.00;99013.53;5098868;27;20142;-72
2024/01/20 04:03:05;;;;;;;3.00;2.23;;;;;;;-3.49;100.00;99017.97;5098281;27;20134;-73
2024/01/20 04:05:31;;;;;;;3.27;2.27;;;;;;;-3.41;100.00;99019.31;5132260;27;20050;-72
2024/01/20 04:07:57;;;;;;;3.73;2.27;;;;;;;-3.39;100.00;99030.41;5131137;27;20203;-73
2024/01/20 04:10:26;;;;;;;6.63;4.00;;;;;;;-3.39;100.00;99027.81;5132202;27;20061;-73
2024/01/20 04:12:52;;;;;;;5.90;3.73;;;;;;;-3.32;100.00;99034.34;5115039;27;20513;-71
2024/01/20 04:15:17;;;;;;;7.13;3.37;;;;;;;-3.31;100.00;99036.88;5133049;27;20043;-72
2024/01/20 04:17:43;;;;;;;5.03;3.33;;;;;;;-3.29;100.00;99032.41;5065619;27;20138;-70
2024/01/20 04:20:09;;;;;;;7.50;4.10;;;;;;;-3.25;100.00;99031.31;5132522;27;20043;-70
2024/01/20 04:22:36;;;;;;;5.77;3.33;;;;;;;-3.26;100.00;99034.00;5093471;28;20443;-70
2024/01/20 04:25:03;;;;;;;7.87;4.13;;;;;;;-3.23;100.00;99039.03;5110029;28;20146;-70
2024/01/20 04:27:29;;;;;;;7.50;3.63;;;;;;;-3.19;100.00;99040.50;5076303;28;20055;-68
2024/01/20 04:29:55;;;;;;;7.67;4.10;;;;;;;-3.19;100.00;99036.16;5075997;28;20043;-68
2024/01/20 04:32:22;;;;;;;7.33;3.83;;;;;;;-3.26;100.00;99024.47;5072871;28;20051;-69
2024/01/20 04:34:48;;;;;;;7.77;4.10;;;;;;;-3.17;100.00;99036.06;5056342;28;20523;-70
2024/01/20 04:37:14;;;;;;;7.30;3.60;;;;;;;-3.15;100.00;99034.22;5074253;28;20048;-69
2024/01/20 04:39:39;;;;;;;9.63;4.17;;;;;;;-3.13;100.00;99041.00;5074121;28;20043;-66
2024/01/20 04:42:06;;;;;;;7.27;3.10;;;;;;;-3.08;100.00;99032.94;5074006;28;20120;-69
2024/01/20 04:44:31;;;;;;;5.90;3.20;;;;;;;-3.12;100.00;99039.25;5074435;28;20511;-69
2024/01/20 04:46:57;;;;;;;3.70;2.33;;;;;;;-3.11;100.00;99033.13;5073976;28;20059;-69
2024/01/20 04:49:23;;;;;;;5.07;2.87;;;;;;;-3.08;100.00;99032.94;5073339;28;20048;-69
2024/01/20 04:51:50;;;;;;;2.80;2.00;;;;;;;-3.07;100.00;99032.00;5072920;28;20058;-68
2024/01/20 04:54:16;;;;;;;3.80;2.40;;;;;;;-3.10;100.00;99035.63;5075892;28;20073;-70
2024/01/20 04:56:43;;;;;;;4.30;2.70;;;;;;;-3.04;100.00;99044.81;5116072;28;20062;-70
2024/01/20 04:59:09;;;;;;;3.83;2.20;;;;;;;-3.04;100.00;99044.81;5080421;28;20035;-67
2024/01/20 05:01:35;;;;;;;4.37;2.60;;;;;;;-2.97;100.00;99046.16;5079556;28;20465;-67
2024/01/20 05:04:00;;;;;;;4.57;2.83;;;;;;;-2.99;100.00;99050.59;5081603;28;20117;-66
2024/01/20 05:06:26;;;;;;;4.83;2.93;;;;;;;-2.97;100.00;99056.53;5075790;28;20047;-68
2024/01/20 05:08:52;;;;;;;4.53;2.80;;;;;;;-2.97;100.00;99054.78;5079059;28;20051;-69
2024/01/20 05:11:18;;;;;;;3.40;2.63;;;;;;;-3.00;100.00;99047.19;5132248;27;20062;-71
2024/01/20 05:13:44;;;;;;;6.63;3.57;;;;;;;-2.94;100.00;99053.75;5132459;28;20107;-72
2024/01/20 05:16:12;;;;;;;4.47;2.93;;;;;;;-2.95;100.00;99057.31;5098983;28;20039;-73
2024/01/20 05:18:37;;;;;;;5.23;2.83;;;;;;;-2.93;100.00;99064.06;5131975;27;20035;-73
2024/01/20 05:21:05;;;;;;;6.17;3.07;;;;;;;-2.91;100.00;99064.81;5137433;27;20386;-73
2024/01/20 05:23:30;;;;;;;6.47;3.37;;;;;;;-2.93;100.00;99058.88;5136242;27;20042;-73
2024/01/20 05:25:56;;;;;;;4.57;2.50;;;;;;;-2.93;100.00;99064.06;5135020;27;20047;-73
2024/01/20 05:28:22;;;;;;;3.87;2.40;;;;;;;-2.96;100.00;99059.03;5084552;27;20058;-71
2024/01/20 05:30:48;;;;;;;4.03;2.53;;;;;;;-2.96;100.00;99066.00;5136603;27;20046;-72
2024/01/20 05:33:13;;;;;;;5.17;3.10;;;;;;;-3.00;100.00;99069.69;5119153;27;20042;-72
2024/01/20 05:35:39;;;;;;;4.43;3.00;;;;;;;-2.94;100.00;99078.00;5117729;27;20039;-73
2024/01/20 05:38:06;;;;;;;4.10;2.80;;;;;;;-2.91;100.00;99066.56;5117582;27;20051;-74
2024/01/20 05:40:34;;;;;;;7.03;3.23;;;;;;;-2.89;100.00;99069.94;5135172;27;20047;-70
2024/01/20 05:42:59;;;;;;;6.37;3.57;;;;;;;-2.87;100.00;99062.88;5118333;27;20420;-72
2024/01/20 05:45:28;;;;;;;7.77;3.97;;;;;;;-2.79;100.00;99055.47;5136047;27;20047;-72
2024/01/20 05:47:53;;;;;;;6.60;3.83;;;;;;;-2.89;100.00;99077.72;5134609;27;20039;-73
2024/01/20 05:50:19;;;;;;;8.73;4.33;;;;;;;-2.86;100.00;99083.56;5117800;27;20375;-70
2024/01/20 05:52:45;;;;;;;7.87;4.70;;;;;;;-2.83;100.00;99085.16;5135468;27;20588;-71
2024/01/20 05:55:10;;;;;;;9.23;4.83;;;;;;;-2.85;100.00;99080.06;5134961;27;20429;-69
2024/01/20 05:57:36;;;;;;;9.07;4.17;;;;;;;-2.85;100.00;99077.47;5134308;27;20067;-73
2024/01/20 06:00:03;;;;;;;6.57;3.60;;;;;;;-2.89;100.00;99073.34;5134477;27;20056;-72
2024/01/20 06:02:30;;;;;;;6.93;3.50;;;;;;;-2.90;100.00;99068.25;5134474;27;20045;-72
2024/01/20 06:04:56;;;;;;;6.50;3.77;;;;;;;-2.90;100.00;99087.28;5135032;27;20047;-72
2024/01/20 06:07:22;;;;;;;5.63;3.00;;;;;;;-2.85;100.00;99074.00;5080617;27;20074;-73
2024/01/20 06:09:48;;;;;;;5.63;3.50;;;;;;;-2.83;100.00;99077.38;5135585;27;20078;-71
2024/01/20 06:12:14;;;;;;;5.37;3.40;;;;;;;-2.81;100.00;99071.16;5117302;27;20099;-70
2024/01/20 06:14:41;;;;;;;7.47;3.47;;;;;;;-2.82;100.00;99081.63;5117213;27;20054;-71
2024/01/20 06:17:06;;;;;;;8.07;4.03;;;;;;;-2.81;100.00;99080.69;5134999;27;20047;-71
2024/01/20 06:19:32;;;;;;;7.47;4.00;;;;;;;-2.80;100.00;99074.59;5133966;27;20047;-71
2024/01/20 06:21:58;;;;;;;10.17;4.63;;;;;;;-2.78;100.00;99088.34;5133827;27;20104;-72
2024/01/20 06:24:25;;;;;;;7.87;4.17;;;;;;;-2.77;100.00;99085.66;5100234;27;20091;-72
2024/01/20 06:26:51;;;;;;;6.63;3.80;;;;;;;-2.74;100.00;99088.06;5117406;27;20039;-69
2024/01/20 06:29:16;;;;;;;6.93;3.57;;;;;;;-2.72;100.00;99103.56;5117605;27;20100;-73
2024/01/20 06:31:44;;;;;;;6.50;3.20;;;;;;;-2.71;100.00;99100.03;5116288;27;20047;-71
2024/01/20 06:34:17;;;;;;;5.13;3.37;;;;;;;-2.71;100.00;99093.09;5134919;27;20039;-73
2024/01/20 06:36:45;;;;;;;3.90;3.10;;;;;;;-2.67;100.00;99096.31;5117877;27;20039;-71
2024/01/20 06:39:10;;;;;;;5.27;3.23;;;;;;;-2.67;100.00;99101.53;5116540;27;20042;-73
2024/01/20 06:41:36;;;;;;;6.40;3.50;;;;;;;-2.67;100.00;99099.75;5134582;27;20046;-72
2024/01/20 06:44:03;;;;;;;5.67;3.23;;;;;;;-2.66;100.00;99090.22;5116389;27;20467;-72
2024/01/20 06:46:28;;;;;;;6.23;3.13;;;;;;;-2.63;100.00;99101.25;5133546;27;20092;-71
2024/01/20 06:48:54;;;;;;;4.77;2.77;;;;;;;-2.62;100.00;99099.50;5099633;27;20089;-70
2024/01/20 06:51:24;;;;;;;8.33;4.30;;;;;;;-2.59;100.00;99099.31;5099492;27;20035;-69
2024/01/20 06:53:56;;;;;;;9.05;4.20;;;;;;;-2.57;100.00;99107.88;5099222;27;20047;-70
2024/01/20 06:56:24;;;;;;;8.90;4.70;;;;;;;-2.50;100.00;99104.81;5133087;27;20039;-72
2024/01/20 06:58:52;;;;;;;5.37;2.93;;;;;;;-2.48;100.00;99112.53;5116705;27;20070;-72
2024/01/20 07:01:18;;;;;;;5.77;3.30;;;;;;;-2.54;100.00;99123.28;5133707;27;20039;-74
2024/01/20 07:03:44;;;;;;;4.77;3.07;;;;;;;-2.50;100.00;99123.00;5116542;27;20031;-73
2024/01/20 07:06:10;;;;;;;7.67;3.20;;;;;;;-2.52;100.00;99118.84;5116370;27;20059;-74
2024/01/20 07:08:35;;;;;;;6.00;3.73;;;;;;;-2.50;100.00;99123.00;5134649;27;20042;-73
2024/01/20 07:11:01;;;;;;;5.73;3.20;;;;;;;-2.49;100.00;99118.66;5117343;27;20093;-73
2024/01/20 07:13:27;;;;;;;6.53;3.20;;;;;;;-2.50;100.00;99115.22;5134906;27;20137;-72
2024/01/20 07:15:52;;;;;;;4.47;2.57;;;;;;;-2.45;100.00;99128.78;5133080;27;20410;-72
2024/01/20 07:18:18;;;;;;;6.07;3.87;;;;;;;-2.43;100.00;99134.72;5132606;27;20047;-71
2024/01/20 07:20:44;;;;;;;4.67;3.00;;;;;;;-2.37;100.00;99131.75;5131907;27;20161;-72
2024/01/20 07:23:10;;;;;;;7.00;3.73;;;;;;;-2.40;100.00;99125.91;5113719;27;20097;-72
2024/01/20 07:25:36;;;;;;;5.10;3.43;;;;;;;-2.39;100.00;99124.97;5131078;27;20424;-72
2024/01/20 07:28:05;;;;;;;5.83;3.60;;;;;;;-2.22;100.00;99123.06;5133138;27;20631;-71
2024/01/20 07:30:30;;;;;;;10.47;5.53;;;;;;;-2.32;100.00;99128.91;5133366;27;20039;-72
2024/01/20 07:32:58;;;;;;;7.77;4.50;;;;;;;-2.33;100.00;99112.47;5117462;27;20035;-71
2024/01/20 07:35:24;;;;;;;10.67;5.63;;;;;;;-2.22;100.00;99132.63;5136299;27;20138;-72
2024/01/20 07:37:50;;;;;;;9.50;5.30;;;;;;;-2.20;100.00;99129.00;5115661;27;20479;-73
2024/01/20 07:40:17;;;;;;;14.67;6.57;;;;;;;-2.19;100.00;99129.84;5132487;27;20050;-71
2024/01/20 07:42:44;;;;;;;12.37;6.17;;;;;;;-2.15;100.00;99129.56;5132296;27;20046;-72
2024/01/20 07:45:09;;;;;;;13.57;7.00;;;;;;;-2.11;100.00;99136.25;5116667;27;20046;-72
2024/01/20 07:47:35;;;;;;;13.53;5.83;;;;;;;-2.07;100.00;99131.69;5116189;27;20427;-71
2024/01/20 07:50:01;;;;;;;13.20;6.43;;;;;;;-2.06;100.00;99134.22;5132791;27;20391;-74
2024/01/20 07:52:28;;;;;;;10.27;5.80;;;;;;;-2.01;100.00;99139.13;5098911;27;20039;-72
2024/01/20 07:54:54;;;;;;;10.60;5.67;;;;;;;-2.01;100.00;99139.97;5116063;27;20134;-73
2024/01/20 07:57:20;;;;;;;11.53;6.20;;;;;;;-1.99;100.00;99127.72;5133386;27;20465;-73
2024/01/20 07:59:45;;;;;;;11.87;6.07;;;;;;;-2.03;100.00;99121.03;5132019;27;20043;-72
2024/01/20 08:02:12;;;;;;;14.53;6.50;;;;;;;-1.97;100.00;99128.44;5081825;27;20053;-72
2024/01/20 08:04:38;;;;;;;12.27;6.17;;;;;;;-1.94;100.00;99132.66;5134574;27;20043;-73
2024/01/20 08:07:04;;;;;;;10.43;6.10;;;;;;;-1.92;100.00;99128.16;5133640;27;20047;-72
2024/01/20 08:09:30;;;;;;;12.43;6.03;;;;;;;-1.89;100.00;99136.63;5056946;28;20491;-72
2024/01/20 08:11:55;;;;;;;11.07;6.10;;;;;;;-1.89;100.00;99130.59;5091008;28;20050;-71
2024/01/20 08:14:21;;;;;;;13.40;6.77;;;;;;;-1.81;100.00;99137.00;5090157;28;20051;-72
2024/01/20 08:16:47;;;;;;;13.20;7.00;;;;;;;-1.85;100.00;99135.53;5040086;28;20440;-71
2024/01/20 08:19:12;;;;;;;12.40;6.67;;;;;;;-1.81;100.00;99130.97;5089795;28;20055;-71
2024/01/20 08:21:39;;;;;;;14.63;7.30;;;;;;;-1.76;100.00;99129.78;5057202;28;20048;-72
2024/01/20 08:24:05;;;;;;;14.33;7.30;;;;;;;-1.67;100.00;99143.13;5040551;28;20539;-71
2024/01/20 08:26:33;;;;;;;11.47;6.60;;;;;;;-1.66;100.00;99140.44;5089362;28;20070;-70
2024/01/20 08:29:02;;;;;;;10.70;6.50;;;;;;;-1.59;100.00;99131.31;5040115;28;20398;-72
2024/01/20 08:31:27;;;;;;;14.03;7.27;;;;;;;-1.52;100.00;99137.00;5089114;28;20044;-71
2024/01/20 08:33:54;;;;;;;12.07;6.83;;;;;;;-1.43;100.00;99139.03;5072528;28;20501;-71
2024/01/20 08:36:20;;;;;;;14.90;7.17;;;;;;;-1.39;100.00;99128.31;5055181;28;20036;-70
2024/01/20 08:38:45;;;;;;;13.37;6.70;;;;;;;-1.31;100.00;99136.50;5072899;28;20031;-74
2024/01/20 08:41:11;;;;;;;11.37;5.93;;;;;;;-1.21;100.00;99136.72;5125405;27;20051;-73
2024/01/20 08:43:41;;;;;;;9.80;5.33;;;;;;;-1.01;100.00;99133.69;5131590;27;20046;-69
2024/01/20 08:46:07;;;;;;;9.15;5.00;;;;;;;-1.03;100.00;99132.97;5132205;27;20087;-71
2024/01/20 08:48:33;;;;;;;8.97;5.17;;;;;;;-0.92;100.00;99139.16;5131695;28;20137;-70
2024/01/20 08:50:59;;;;;;;9.57;5.07;;;;;;;-0.87;100.00;99131.88;5109281;28;20063;-68
2024/01/20 08:53:29;;;;;;;8.30;4.60;;;;;;;-0.61;100.00;99151.88;5080114;28;20050;-75
2024/01/20 08:55:54;;;;;;;7.17;4.33;;;;;;;-0.63;100.00;99150.31;5126011;27;20035;-71
2024/01/20 08:58:20;;;;;;;8.07;4.70;;;;;;;-0.53;100.00;99146.16;5135537;27;20043;-70
2024/01/20 09:00:46;;;;;;;7.20;4.33;;;;;;;-0.43;100.00;99149.84;5118681;27;20431;-74
2024/01/20 09:03:11;;;;;;;5.97;4.07;;;;;;;-0.29;100.00;99155.78;5135740;27;20069;-72
2024/01/20 09:05:37;;;;;;;6.93;4.20;;;;;;;-0.15;100.00;99150.50;5134800;27;20054;-69
2024/01/20 09:08:05;;;;;;;6.73;4.13;;;;;;;-0.03;100.00;99146.19;5136205;27;20050;-67
2024/01/20 09:10:32;;;;;;;5.83;3.67;;;;;;;0.20;100.00;99153.28;5117905;27;20035;-68
2024/01/20 09:12:58;;;;;;;6.63;4.10;;;;;;;0.35;100.00;99146.19;5117957;27;20046;-68
2024/01/20 09:15:26;;;;;;;4.80;3.47;;;;;;;0.47;100.00;99153.19;5093476;28;20044;-68
2024/01/20 09:17:51;;;;;;;6.43;4.10;;;;;;;0.63;100.00;99156.41;5078804;28;20451;-67
2024/01/20 09:20:17;;;;;;;7.20;3.80;;;;;;;0.76;100.00;99151.97;5094837;28;20047;-69
2024/01/20 09:22:46;;;;;;;6.17;3.90;;;;;;;1.02;100.00;99159.63;5052171;28;20527;-68
2024/01/20 09:25:12;;;;;;;6.83;4.00;;;;;;;1.11;100.00;99158.94;5052213;28;20041;-69
2024/01/20 09:27:39;;;;;;;6.97;4.13;;;;;;;1.27;100.00;99145.59;5019478;28;20055;-69
2024/01/20 09:30:07;;;;;;;6.30;4.20;;;;;;;1.48;100.00;99147.47;5052472;28;20088;-68
2024/01/20 09:32:33;;;;;;;7.20;4.27;;;;;;;1.56;100.00;99136.44;5035684;28;20095;-68
2024/01/20 09:35:00;;;;;;;6.70;4.00;;;;;;;1.78;100.00;99150.41;5035473;28;20103;-68
2024/01/20 09:37:26;;;;;;;5.87;4.03;;;;;;;1.91;100.00;99160.81;5035392;28;20049;-68
2024/01/20 09:39:53;;;;;;;6.33;3.90;;;;;;;2.06;100.00;99164.88;5035459;28;20040;-68
2024/01/20 09:42:18;;;;;;;4.73;3.63;;;;;;;2.17;100.00;99145.75;5018647;28;20048;-68
2024/01/20 09:44:44;;;;;;;5.97;3.70;;;;;;;2.37;100.00;99166.81;5018617;28;20044;-68
2024/01/20 09:47:11;;;;;;;5.97;4.00;;;;;;;2.54;100.00;99165.50;5067988;28;20077;-68
2024/01/20 09:49:37;;;;;;;6.40;3.83;;;;;;;2.63;100.00;99167.44;5074975;28;20035;-67
2024/01/20 09:52:17;;;;;;;4.10;3.20;;;;;;;2.86;100.00;99174.34;5039377;28;20515;-65
2024/01/20 09:55:10;;;;;;;4.97;2.93;;;;;;;2.90;100.00;99184.47;5096926;27;20104;-65
2024/01/20 09:57:36;;;;;;;4.23;3.27;;;;;;;2.82;100.00;99176.34;5116759;27;20047;-64
2024/01/20 10:00:04;;;;;;;5.93;3.40;;;;;;;2.82;100.00;99180.75;5114454;27;20078;-67
2024/01/20 10:02:39;;;;;;;4.07;3.23;;;;;;;2.81;100.00;99181.72;5133677;27;20031;-65
2024/01/20 10:05:09;;;;;;;4.67;3.50;;;;;;;2.89;100.00;99181.97;5133570;27;20084;-66
2024/01/20 10:07:35;;;;;;;4.93;3.50;;;;;;;2.78;100.00;99179.34;5135056;27;20049;-66
2024/01/20 10:10:00;;;;;;;6.93;3.97;;;;;;;2.78;100.00;99184.59;5134952;27;20410;-65
2024/01/20 10:12:26;;;;;;;6.53;3.97;;;;;;;2.75;100.00;99174.34;5133908;27;20053;-67
2024/01/20 10:14:52;;;;;;;6.90;3.57;;;;;;;2.74;100.00;99168.25;5095069;28;20070;-66
2024/01/20 10:17:20;;;;;;;5.90;3.80;;;;;;;2.75;100.00;99172.53;5095458;28;20162;-66
2024/01/20 10:19:46;;;;;;;5.77;3.70;;;;;;;2.79;100.00;99179.22;5095276;28;20112;-67
2024/01/20 10:22:14;;;;;;;5.63;3.77;;;;;;;2.79;100.00;99187.09;5112175;28;20066;-68
2024/01/20 10:24:50;;;;;;;6.00;3.87;;;;;;;2.91;100.00;99178.25;5077781;28;20124;-66
2024/01/20 10:27:23;;;;;;;5.03;3.33;;;;;;;2.79;100.00;99187.09;5079236;28;20054;-67
2024/01/20 10:29:49;;;;;;;6.17;3.90;;;;;;;2.82;100.00;99178.13;5095808;28;20052;-68
2024/01/20 10:32:21;;;;;;;6.53;3.60;;;;;;;2.86;100.00;99193.50;5045773;28;20058;-68
2024/01/20 10:34:48;;;;;;;;;;;;;;;2.98;100.00;99187.28;5096720;28;20130;-68
2024/01/20 10:37:15;;;;;;;7.27;4.00;;;;;;;2.79;100.00;99196.72;5078955;28;20034;-72
2024/01/20 10:39:46;;;;;;;5.30;3.83;;;;;;;2.87;100.00;99195.19;5061144;28;20142;-69
2024/01/20 10:42:15;;;;;;;7.63;4.30;;;;;;;2.79;100.00;99197.56;5053569;28;20052;-67
2024/01/20 10:45:00;;;;;;;7.50;4.00;;;;;;;2.87;100.00;99192.56;5054518;28;20044;-64
2024/01/20 10:47:36;;;;;;;6.03;4.00;;;;;;;2.83;100.00;99191.13;5041521;28;20483;-66
2024/01/20 10:50:07;;;;;;;6.47;4.47;;;;;;;2.88;100.00;99196.00;5052695;28;20475;-67
2024/01/20 10:52:37;;;;;;;5.93;4.05;;;;;;;2.89;100.00;99188.03;5054572;28;20121;-68
2024/01/20 10:55:05;;;;;;;6.50;4.13;;;;;;;2.83;100.00;99199.00;5071261;28;20454;-68
2024/01/20 10:57:31;;;;;;;7.13;4.40;;;;;;;2.75;100.00;99190.88;5055208;28;20093;-66
2024/01/20 11:00:00;;;;;;;7.93;4.70;;;;;;;2.83;100.00;99213.91;5068129;28;20052;-66
2024/01/20 11:02:27;;;;;;;7.40;4.43;;;;;;;2.84;100.00;99199.84;5035167;28;20041;-66
2024/01/20 11:04:54;;;;;;;6.77;4.23;;;;;;;2.86;100.00;99211.88;5067928;28;20269;-67
2024/01/20 11:07:22;;;;;;;4.80;3.50;;;;;;;2.75;100.00;99197.94;5019010;28;20041;-67
2024/01/20 11:09:58;;;;;;;6.87;4.20;;;;;;;2.91;100.00;99208.88;5034552;28;20115;-66
2024/01/20 11:12:25;;;;;;;6.83;4.30;;;;;;;2.72;100.00;99204.25;5040225;28;20071;-65
2024/01/20 11:14:53;;;;;;;8.77;4.60;;;;;;;2.71;100.00;99197.34;5057395;28;20039;-66
2024/01/20 11:17:24;;;;;;;5.20;3.73;;;;;;;2.70;100.00;99198.31;5057530;28;20067;-69
2024/01/20 11:19:50;;;;;;;;;;;;;;;2.76;100.00;99208.31;5058523;28;20047;-68
2024/01/20 11:22:34;;;;;;;6.17;3.90;;;;;;;2.70;100.00;99208.78;5059845;28;19946;-67
2024/01/20 11:25:06;;;;;;;7.03;4.63;;;;;;;2.62;100.00;99211.16;5038862;28;20048;-66